sensor_id;sensor_type;location;lat;lon;timestamp;pressure;altitude;pressure_sealevel;temperature;humidity
26489;BME280;14169;43.684;10.484;2022-11-11T00:00:35;103008.97;;;14.33;100.00
26489;BME280;14169;43.684;10.484;2022-11-11T00:03:02;103007.22;;;14.34;100.00
26489;BME280;14169;43.684;10.484;2022-11-11T00:05:27;103009.84;;;14.34;100.00
26489;BME280;14169;43.684;10.484;2022-11-11T00:07:54;103008.06;;;14.31;100.00
26489;BME280;14169;43.684;10.484;2022-11-11T00:10:28;103007.22;;;14.31;100.00
26489;BME280;14169;43.684;10.484;2022-11-11T00:13:00;103003.75;;;14.27;100.00
26489;BME280;14169;43.684;10.484;2022-11-11T00:15:27;103007.28;;;14.26;100.00
26489;BME280;14169;43.684;10.484;2022-11-11T00:17:52;103011.66;;;14.24;100.00
26489;BME280;14169;43.684;10.484;2022-11-11T00:20:38;103015.19;;;14.22;100.00
26489;BME280;14169;43.684;10.484;2022-11-11T00:23:24;103003.84;;;14.20;100.00
26489;BME280;14169;43.684;10.484;2022-11-11T00:26:10;103016.97;;;14.15;100.00
26489;BME280;14169;43.684;10.484;2022-11-11T00:28:36;103019.66;;;14.09;100.00
26489;BME280;14169;43.684;10.484;2022-11-11T00:31:10;103021.44;;;14.07;100.00
26489;BME280;14169;43.684;10.484;2022-11-11T00:33:37;103025.84;;;14.07;100.00
26489;BME280;14169;43.684;10.484;2022-11-11T00:36:03;103022.34;;;14.05;100.00
26489;BME280;14169;43.684;10.484;2022-11-11T00:38:29;103023.22;;;14.07;100.00
26489;BME280;14169;43.684;10.484;2022-11-11T00:41:21;103022.28;;;14.09;100.00
26489;BME280;14169;43.684;10.484;2022-11-11T00:43:47;103031.94;;;14.09;100.00
26489;BME280;14169;43.684;10.484;2022-11-11T00:46:14;103024.06;;;14.09;100.00
26489;BME280;14169;43.684;10.484;2022-11-11T00:48:59;103025.78;;;14.10;100.00
26489;BME280;14169;43.684;10.484;2022-11-11T00:51:43;103031.91;;;14.07;100.00
26489;BME280;14169;43.684;10.484;2022-11-11T00:54:09;103026.69;;;14.06;100.00
26489;BME280;14169;43.684;10.484;2022-11-11T00:56:35;103025.81;;;14.05;100.00
26489;BME280;14169;43.684;10.484;2022-11-11T00:59:02;103028.47;;;14.04;100.00
26489;BME280;14169;43.684;10.484;2022-11-11T01:01:27;103032.91;;;13.99;100.00
26489;BME280;14169;43.684;10.484;2022-11-11T01:03:53;103034.63;;;13.98;100.00
26489;BME280;14169;43.684;10.484;2022-11-11T01:06:18;103030.28;;;13.97;100.00
26489;BME280;14169;43.684;10.484;2022-11-11T01:08:43;103024.13;;;14.00;100.00
26489;BME280;14169;43.684;10.484;2022-11-11T01:11:17;103033.72;;;14.02;100.00
26489;BME280;14169;43.684;10.484;2022-11-11T01:13:43;103034.53;;;14.07;100.00
26489;BME280;14169;43.684;10.484;2022-11-11T01:16:16;103038.09;;;14.05;100.00
26489;BME280;14169;43.684;10.484;2022-11-11T01:18:41;103037.19;;;14.06;100.00
26489;BME280;14169;43.684;10.484;2022-11-11T01:21:13;103050.34;;;14.00;100.00
26489;BME280;14169;43.684;10.484;2022-11-11T01:23:40;103047.78;;;13.97;100.00
26489;BME280;14169;43.684;10.484;2022-11-11T01:26:08;103045.16;;;13.97;100.00
26489;BME280;14169;43.684;10.484;2022-11-11T01:28:36;103032.91;;;13.99;100.00
26489;BME280;14169;43.684;10.484;2022-11-11T01:31:03;103033.72;;;14.02;100.00
26489;BME280;14169;43.684;10.484;2022-11-11T01:33:29;103038.97;;;14.02;100.00
26489;BME280;14169;43.684;10.484;2022-11-11T01:35:54;103036.34;;;14.02;100.00
26489;BME280;14169;43.684;10.484;2022-11-11T01:38:20;103039.84;;;14.03;100.00
26489;BME280;14169;43.684;10.484;2022-11-11T01:40:47;103035.47;;;14.05;100.00
26489;BME280;14169;43.684;10.484;2022-11-11T01:43:21;103027.59;;;14.05;100.00
26489;BME280;14169;43.684;10.484;2022-11-11T01:45:57;103022.31;;;14.08;100.00
26489;BME280;14169;43.684;10.484;2022-11-11T01:48:38;103015.31;;;14.10;100.00
26489;BME280;14169;43.684;10.484;2022-11-11T01:53:55;103018.84;;;14.06;100.00
26489;BME280;14169;43.684;10.484;2022-11-11T01:56:23;103011.88;;;14.03;100.00
26489;BME280;14169;43.684;10.484;2022-11-11T01:58:51;103017.97;;;14.05;100.00
26489;BME280;14169;43.684;10.484;2022-11-11T02:01:19;103006.63;;;14.03;100.00
26489;BME280;14169;43.684;10.484;2022-11-11T02:03:45;103007.56;;;13.98;100.00
26489;BME280;14169;43.684;10.484;2022-11-11T02:06:32;103009.34;;;13.94;100.00
26489;BME280;14169;43.684;10.484;2022-11-11T02:08:59;103011.16;;;13.88;100.00
26489;BME280;14169;43.684;10.484;2022-11-11T02:11:25;103005.09;;;13.83;100.00
26489;BME280;14169;43.684;10.484;2022-11-11T02:14:11;102998.97;;;13.82;100.00
26489;BME280;14169;43.684;10.484;2022-11-11T02:16:55;103009.47;;;13.81;100.00
26489;BME280;14169;43.684;10.484;2022-11-11T02:19:48;103004.28;;;13.76;100.00
26489;BME280;14169;43.684;10.484;2022-11-11T02:22:16;103000.81;;;13.71;100.00
26489;BME280;14169;43.684;10.484;2022-11-11T02:24:43;103001.72;;;13.69;100.00
26489;BME280;14169;43.684;10.484;2022-11-11T02:27:13;102998.22;;;13.68;100.00
26489;BME280;14169;43.684;10.484;2022-11-11T02:29:40;103001.75;;;13.66;100.00
26489;BME280;14169;43.684;10.484;2022-11-11T02:32:07;103006.13;;;13.64;100.00
26489;BME280;14169;43.684;10.484;2022-11-11T02:34:33;103008.78;;;13.61;100.00
26489;BME280;14169;43.684;10.484;2022-11-11T02:37:00;103002.66;;;13.60;100.00
26489;BME280;14169;43.684;10.484;2022-11-11T02:39:27;103011.41;;;13.58;100.00
26489;BME280;14169;43.684;10.484;2022-11-11T02:41:53;103017.56;;;13.52;100.00
26489;BME280;14169;43.684;10.484;2022-11-11T02:44:21;103004.50;;;13.49;100.00
26489;BME280;14169;43.684;10.484;2022-11-11T02:46:47;103009.75;;;13.46;100.00
26489;BME280;14169;43.684;10.484;2022-11-11T02:49:12;103008.91;;;13.42;100.00
26489;BME280;14169;43.684;10.484;2022-11-11T02:51:38;103013.31;;;13.36;100.00
26489;BME280;14169;43.684;10.484;2022-11-11T02:54:03;103011.59;;;13.36;100.00
26489;BME280;14169;43.684;10.484;2022-11-11T02:56:29;103006.31;;;13.41;100.00
26489;BME280;14169;43.684;10.484;2022-11-11T02:59:12;103011.50;;;13.45;100.00
26489;BME280;14169;43.684;10.484;2022-11-11T03:01:38;103017.59;;;13.47;100.00
26489;BME280;14169;43.684;10.484;2022-11-11T03:04:04;103016.69;;;13.52;100.00
26489;BME280;14169;43.684;10.484;2022-11-11T03:06:29;103018.44;;;13.54;100.00
26489;BME280;14169;43.684;10.484;2022-11-11T03:08:55;103019.25;;;13.58;100.00
26489;BME280;14169;43.684;10.484;2022-11-11T03:11:20;103020.97;;;13.62;100.00
26489;BME280;14169;43.684;10.484;2022-11-11T03:13:59;103025.31;;;13.66;100.00
26489;BME280;14169;43.684;10.484;2022-11-11T03:16:25;103023.56;;;13.69;100.00
26489;BME280;14169;43.684;10.484;2022-11-11T03:19:10;103024.41;;;13.70;100.00
26489;BME280;14169;43.684;10.484;2022-11-11T03:21:35;103031.34;;;13.75;100.00
26489;BME280;14169;43.684;10.484;2022-11-11T03:24:01;103030.44;;;13.79;100.00
26489;BME280;14169;43.684;10.484;2022-11-11T03:26:26;103037.41;;;13.82;100.00
26489;BME280;14169;43.684;10.484;2022-11-11T03:28:51;103040.00;;;13.83;100.00
26489;BME280;14169;43.684;10.484;2022-11-11T03:31:17;103043.50;;;13.87;100.00
26489;BME280;14169;43.684;10.484;2022-11-11T03:33:42;103052.22;;;13.89;100.00
26489;BME280;14169;43.684;10.484;2022-11-11T03:36:08;103057.47;;;13.86;100.00
26489;BME280;14169;43.684;10.484;2022-11-11T03:38:34;103057.47;;;13.81;100.00
26489;BME280;14169;43.684;10.484;2022-11-11T03:41:00;103054.06;;;13.76;100.00
26489;BME280;14169;43.684;10.484;2022-11-11T03:43:27;103057.59;;;13.71;100.00
26489;BME280;14169;43.684;10.484;2022-11-11T03:45:59;103053.25;;;13.64;100.00
26489;BME280;14169;43.684;10.484;2022-11-11T03:48:26;103055.09;;;13.54;100.00
26489;BME280;14169;43.684;10.484;2022-11-11T03:50:52;103055.16;;;13.46;100.00
26489;BME280;14169;43.684;10.484;2022-11-11T03:53:18;103049.97;;;13.37;100.00
26489;BME280;14169;43.684;10.484;2022-11-11T03:55:44;103050.88;;;13.30;100.00
26489;BME280;14169;43.684;10.484;2022-11-11T03:58:11;103039.56;;;13.24;100.00
26489;BME280;14169;43.684;10.484;2022-11-11T04:00:36;103044.81;;;13.19;100.00
26489;BME280;14169;43.684;10.484;2022-11-11T04:03:16;103043.09;;;13.17;100.00
26489;BME280;14169;43.684;10.484;2022-11-11T04:06:00;103052.69;;;13.16;100.00
26489;BME280;14169;43.684;10.484;2022-11-11T04:08:47;103052.69;;;13.13;100.00
26489;BME280;14169;43.684;10.484;2022-11-11T04:11:40;103045.75;;;13.11;100.00
26489;BME280;14169;43.684;10.484;2022-11-11T04:14:11;103050.97;;;13.12;100.00
26489;BME280;14169;43.684;10.484;2022-11-11T04:16:56;103044.84;;;13.13;100.00
26489;BME280;14169;43.684;10.484;2022-11-11T04:19:21;103043.97;;;13.14;100.00
26489;BME280;14169;43.684;10.484;2022-11-11T04:22:06;103044.00;;;13.08;100.00
26489;BME280;14169;43.684;10.484;2022-11-11T04:24:31;103047.50;;;13.04;100.00
26489;BME280;14169;43.684;10.484;2022-11-11T04:27:17;103049.31;;;12.99;100.00
26489;BME280;14169;43.684;10.484;2022-11-11T04:29:43;103044.94;;;12.97;100.00
26489;BME280;14169;43.684;10.484;2022-11-11T04:32:10;103058.03;;;12.92;100.00
26489;BME280;14169;43.684;10.484;2022-11-11T04:34:59;103053.72;;;12.87;100.00
26489;BME280;14169;43.684;10.484;2022-11-11T04:37:26;103059.84;;;12.81;100.00
26489;BME280;14169;43.684;10.484;2022-11-11T04:39:52;103052.00;;;12.78;100.00
26489;BME280;14169;43.684;10.484;2022-11-11T04:42:36;103058.09;;;12.80;100.00
26489;BME280;14169;43.684;10.484;2022-11-11T04:45:03;103055.47;;;12.82;100.00
26489;BME280;14169;43.684;10.484;2022-11-11T04:48:07;103046.75;;;12.78;100.00
26489;BME280;14169;43.684;10.484;2022-11-11T04:50:35;103039.78;;;12.76;100.00
26489;BME280;14169;43.684;10.484;2022-11-11T04:53:03;103045.03;;;12.73;100.00
26489;BME280;14169;43.684;10.484;2022-11-11T04:55:29;103038.09;;;12.69;100.00
26489;BME280;14169;43.684;10.484;2022-11-11T04:58:13;103045.94;;;12.64;100.00
26489;BME280;14169;43.684;10.484;2022-11-11T05:00:39;103047.69;;;12.63;100.00
26489;BME280;14169;43.684;10.484;2022-11-11T05:03:05;103049.44;;;12.60;100.00
26489;BME280;14169;43.684;10.484;2022-11-11T05:06:02;103046.84;;;12.55;100.00
26489;BME280;14169;43.684;10.484;2022-11-11T05:08:48;103058.19;;;12.54;100.00
26489;BME280;14169;43.684;10.484;2022-11-11T05:11:31;103058.19;;;12.50;100.00
26489;BME280;14169;43.684;10.484;2022-11-11T05:13:58;103062.56;;;12.45;100.00
26489;BME280;14169;43.684;10.484;2022-11-11T05:16:54;103063.44;;;12.42;100.00
26489;BME280;14169;43.684;10.484;2022-11-11T05:19:38;103067.81;;;12.39;100.00
26489;BME280;14169;43.684;10.484;2022-11-11T05:22:32;103068.69;;;12.33;100.00
26489;BME280;14169;43.684;10.484;2022-11-11T05:24:59;103065.22;;;12.28;100.00
26489;BME280;14169;43.684;10.484;2022-11-11T05:27:43;103066.06;;;12.26;100.00
26489;BME280;14169;43.684;10.484;2022-11-11T05:30:10;103092.22;;;12.24;100.00
26489;BME280;14169;43.684;10.484;2022-11-11T05:32:37;103084.41;;;12.15;100.00
26489;BME280;14169;43.684;10.484;2022-11-11T05:35:04;103080.03;;;12.10;100.00
26489;BME280;14169;43.684;10.484;2022-11-11T05:37:29;103093.13;;;12.11;100.00
26489;BME280;14169;43.684;10.484;2022-11-11T05:39:55;103082.66;;;12.11;100.00
26489;BME280;14169;43.684;10.484;2022-11-11T05:42:20;103087.88;;;12.13;100.00
26489;BME280;14169;43.684;10.484;2022-11-11T05:44:46;103099.22;;;12.07;100.00
26489;BME280;14169;43.684;10.484;2022-11-11T05:47:11;103103.56;;;12.05;100.00
26489;BME280;14169;43.684;10.484;2022-11-11T05:49:36;103108.78;;;12.04;100.00
26489;BME280;14169;43.684;10.484;2022-11-11T05:52:02;103104.44;;;12.04;100.00
26489;BME280;14169;43.684;10.484;2022-11-11T05:54:28;103107.91;;;12.02;100.00
26489;BME280;14169;43.684;10.484;2022-11-11T05:56:53;103106.16;;;12.02;100.00
26489;BME280;14169;43.684;10.484;2022-11-11T05:59:19;103108.78;;;12.04;100.00
26489;BME280;14169;43.684;10.484;2022-11-11T06:01:44;103107.03;;;12.00;100.00
26489;BME280;14169;43.684;10.484;2022-11-11T06:04:10;103107.91;;;11.96;100.00
26489;BME280;14169;43.684;10.484;2022-11-11T06:06:35;103112.28;;;11.97;100.00
26489;BME280;14169;43.684;10.484;2022-11-11T06:09:02;103109.66;;;11.97;100.00
26489;BME280;14169;43.684;10.484;2022-11-11T06:11:27;103108.78;;;11.98;100.00
26489;BME280;14169;43.684;10.484;2022-11-11T06:13:54;103113.13;;;12.02;100.00
26489;BME280;14169;43.684;10.484;2022-11-11T06:16:20;103124.47;;;11.99;100.00
26489;BME280;14169;43.684;10.484;2022-11-11T06:18:46;103128.81;;;12.00;100.00
26489;BME280;14169;43.684;10.484;2022-11-11T06:21:11;103123.56;;;12.02;100.00
26489;BME280;14169;43.684;10.484;2022-11-11T06:23:37;103126.19;;;12.06;100.00
26489;BME280;14169;43.684;10.484;2022-11-11T06:26:02;103127.94;;;12.12;100.00
26489;BME280;14169;43.684;10.484;2022-11-11T06:28:44;103131.44;;;12.12;100.00
26489;BME280;14169;43.684;10.484;2022-11-11T06:31:13;103139.28;;;12.11;100.00
26489;BME280;14169;43.684;10.484;2022-11-11T06:33:38;103140.16;;;12.19;100.00
26489;BME280;14169;43.684;10.484;2022-11-11T06:36:05;103143.63;;;12.24;100.00
26489;BME280;14169;43.684;10.484;2022-11-11T06:38:31;103137.53;;;12.23;100.00
26489;BME280;14169;43.684;10.484;2022-11-11T06:40:56;103134.91;;;12.32;100.00
26489;BME280;14169;43.684;10.484;2022-11-11T06:43:22;103133.16;;;12.30;100.00
26489;BME280;14169;43.684;10.484;2022-11-11T06:45:52;103143.63;;;12.39;100.00
26489;BME280;14169;43.684;10.484;2022-11-11T06:48:19;103146.22;;;12.48;100.00
26489;BME280;14169;43.684;10.484;2022-11-11T06:50:44;103147.97;;;12.50;100.00
26489;BME280;14169;43.684;10.484;2022-11-11T06:53:12;103157.53;;;12.62;100.00
26489;BME280;14169;43.684;10.484;2022-11-11T06:55:38;103160.13;;;12.74;100.00
26489;BME280;14169;43.684;10.484;2022-11-11T06:58:18;103161.88;;;12.81;100.00
26489;BME280;14169;43.684;10.484;2022-11-11T07:00:45;103165.31;;;12.91;100.00
26489;BME280;14169;43.684;10.484;2022-11-11T07:03:13;103174.00;;;13.02;100.00
26489;BME280;14169;43.684;10.484;2022-11-11T07:05:39;103182.66;;;13.16;100.00
26489;BME280;14169;43.684;10.484;2022-11-11T07:08:10;103173.94;;;13.29;100.00
26489;BME280;14169;43.684;10.484;2022-11-11T07:10:38;103179.13;;;13.41;100.00
26489;BME280;14169;43.684;10.484;2022-11-11T07:13:05;103179.91;;;13.54;100.00
26489;BME280;14169;43.684;10.484;2022-11-11T07:15:31;103177.22;;;13.69;100.00
26489;BME280;14169;43.684;10.484;2022-11-11T07:17:57;103184.13;;;13.85;100.00
26489;BME280;14169;43.684;10.484;2022-11-11T07:20:22;103178.84;;;13.91;100.00
26489;BME280;14169;43.684;10.484;2022-11-11T07:22:48;103177.03;;;14.00;100.00
26489;BME280;14169;43.684;10.484;2022-11-11T07:25:13;103185.69;;;14.08;100.00
26489;BME280;14169;43.684;10.484;2022-11-11T07:27:39;103183.81;;;14.28;100.00
26489;BME280;14169;43.684;10.484;2022-11-11T07:30:06;103186.28;;;14.45;100.00
26489;BME280;14169;43.684;10.484;2022-11-11T07:32:32;103190.59;;;14.57;100.00
26489;BME280;14169;43.684;10.484;2022-11-11T07:34:57;103192.19;;;14.73;100.00
26489;BME280;14169;43.684;10.484;2022-11-11T07:37:23;103196.41;;;14.86;100.00
26489;BME280;14169;43.684;10.484;2022-11-11T07:39:48;103204.25;;;14.90;100.00
26489;BME280;14169;43.684;10.484;2022-11-11T07:42:14;103203.28;;;14.97;100.00
26489;BME280;14169;43.684;10.484;2022-11-11T07:44:39;103203.06;;;15.18;100.00
26489;BME280;14169;43.684;10.484;2022-11-11T07:47:05;103204.63;;;15.35;100.00
26489;BME280;14169;43.684;10.484;2022-11-11T07:49:31;103218.47;;;15.50;100.00
26489;BME280;14169;43.684;10.484;2022-11-11T07:51:56;103210.31;;;15.70;100.00
26489;BME280;14169;43.684;10.484;2022-11-11T07:54:21;103218.88;;;15.84;100.00
26489;BME280;14169;43.684;10.484;2022-11-11T07:56:47;103216.97;;;15.93;100.00
26489;BME280;14169;43.684;10.484;2022-11-11T07:59:12;103223.06;;;15.98;100.00
26489;BME280;14169;43.684;10.484;2022-11-11T08:01:37;103228.97;;;16.11;100.00
26489;BME280;14169;43.684;10.484;2022-11-11T08:04:03;103233.97;;;16.28;100.00
26489;BME280;14169;43.684;10.484;2022-11-11T08:06:29;103234.66;;;16.42;100.00
26489;BME280;14169;43.684;10.484;2022-11-11T08:08:54;103243.38;;;16.45;100.00
26489;BME280;14169;43.684;10.484;2022-11-11T08:11:19;103239.72;;;16.54;100.00
26489;BME280;14169;43.684;10.484;2022-11-11T08:14:05;103253.13;;;16.89;100.00
26489;BME280;14169;43.684;10.484;2022-11-11T08:16:30;103256.13;;;17.17;100.00
26489;BME280;14169;43.684;10.484;2022-11-11T08:18:56;103258.63;;;17.24;100.00
26489;BME280;14169;43.684;10.484;2022-11-11T08:21:23;103262.50;;;17.51;100.00
26489;BME280;14169;43.684;10.484;2022-11-11T08:23:49;103270.84;;;17.73;100.00
26489;BME280;14169;43.684;10.484;2022-11-11T08:26:14;103271.22;;;17.96;100.00
26489;BME280;14169;43.684;10.484;2022-11-11T08:28:42;103271.69;;;18.13;100.00
26489;BME280;14169;43.684;10.484;2022-11-11T08:31:07;103278.94;;;18.43;100.00
26489;BME280;14169;43.684;10.484;2022-11-11T08:33:34;103286.34;;;18.64;100.00
26489;BME280;14169;43.684;10.484;2022-11-11T08:35:59;103283.97;;;18.87;100.00
26489;BME280;14169;43.684;10.484;2022-11-11T08:38:26;103290.56;;;19.05;100.00
26489;BME280;14169;43.684;10.484;2022-11-11T08:40:52;103298.91;;;19.23;100.00
26489;BME280;14169;43.684;10.484;2022-11-11T08:43:18;103299.16;;;19.45;100.00
26489;BME280;14169;43.684;10.484;2022-11-11T08:45:44;103288.19;;;19.59;100.00
26489;BME280;14169;43.684;10.484;2022-11-11T08:48:09;103276.56;;;19.64;100.00
26489;BME280;14169;43.684;10.484;2022-11-11T08:50:39;103266.81;;;19.66;100.00
26489;BME280;14169;43.684;10.484;2022-11-11T08:53:08;103264.97;;;19.68;100.00
26489;BME280;14169;43.684;10.484;2022-11-11T08:55:35;103255.59;;;19.58;100.00
26489;BME280;14169;43.684;10.484;2022-11-11T08:58:02;103260.44;;;19.73;100.00
26489;BME280;14169;43.684;10.484;2022-11-11T09:00:28;103258.81;;;19.98;100.00
26489;BME280;14169;43.684;10.484;2022-11-11T09:02:54;103262.88;;;20.10;100.00
26489;BME280;14169;43.684;10.484;2022-11-11T09:05:19;103266.53;;;20.32;100.00
26489;BME280;14169;43.684;10.484;2022-11-11T09:07:45;103259.19;;;20.68;100.00
26489;BME280;14169;43.684;10.484;2022-11-11T09:10:10;103241.75;;;20.87;100.00
26489;BME280;14169;43.684;10.484;2022-11-11T09:12:36;103230.38;;;21.08;100.00
26489;BME280;14169;43.684;10.484;2022-11-11T09:15:02;103228.59;;;21.33;100.00
26489;BME280;14169;43.684;10.484;2022-11-11T09:17:27;103229.72;;;21.51;100.00
26489;BME280;14169;43.684;10.484;2022-11-11T09:19:53;103222.53;;;21.76;100.00
26489;BME280;14169;43.684;10.484;2022-11-11T09:22:18;103219.16;;;21.94;100.00
26489;BME280;14169;43.684;10.484;2022-11-11T09:24:43;103209.28;;;22.19;100.00
26489;BME280;14169;43.684;10.484;2022-11-11T09:27:10;103192.88;;;22.31;100.00
26489;BME280;14169;43.684;10.484;2022-11-11T09:29:35;103193.19;;;22.44;100.00
26489;BME280;14169;43.684;10.484;2022-11-11T09:32:01;103180.06;;;22.41;100.00
26489;BME280;14169;43.684;10.484;2022-11-11T09:34:26;103185.75;;;22.32;100.00
26489;BME280;14169;43.684;10.484;2022-11-11T09:36:52;103184.69;;;22.36;100.00
26489;BME280;14169;43.684;10.484;2022-11-11T09:39:17;103181.19;;;22.35;100.00
26489;BME280;14169;43.684;10.484;2022-11-11T09:42:10;103197.31;;;22.31;100.00
26489;BME280;14169;43.684;10.484;2022-11-11T09:52:31;103181.31;;;22.73;100.00
26489;BME280;14169;43.684;10.484;2022-11-11T09:55:37;103177.69;;;22.55;100.00
26489;BME280;14169;43.684;10.484;2022-11-11T09:58:13;103173.97;;;22.99;100.00
26489;BME280;14169;43.684;10.484;2022-11-11T10:00:43;103172.97;;;23.20;100.00
26489;BME280;14169;43.684;10.484;2022-11-11T10:03:21;103180.81;;;23.42;100.00
26489;BME280;14169;43.684;10.484;2022-11-11T10:05:54;103169.75;;;23.51;100.00
26489;BME280;14169;43.684;10.484;2022-11-11T10:08:34;103171.69;;;23.66;100.00
26489;BME280;14169;43.684;10.484;2022-11-11T10:11:04;103174.38;;;23.66;100.00
26489;BME280;14169;43.684;10.484;2022-11-11T10:13:36;103169.53;;;23.74;100.00
26489;BME280;14169;43.684;10.484;2022-11-11T10:21:00;103158.38;;;24.02;100.00
26489;BME280;14169;43.684;10.484;2022-11-11T10:23:31;103160.91;;;24.05;100.00
26489;BME280;14169;43.684;10.484;2022-11-11T10:26:19;103156.13;;;24.11;100.00
26489;BME280;14169;43.684;10.484;2022-11-11T10:28:48;103148.16;;;24.28;100.00
26489;BME280;14169;43.684;10.484;2022-11-11T10:31:17;103150.91;;;24.27;100.00
26489;BME280;14169;43.684;10.484;2022-11-11T10:33:49;103137.44;;;24.30;100.00
26489;BME280;14169;43.684;10.484;2022-11-11T10:36:19;103145.03;;;24.55;100.00
26489;BME280;14169;43.684;10.484;2022-11-11T10:39:04;103137.59;;;24.61;100.00
26489;BME280;14169;43.684;10.484;2022-11-11T10:41:48;103139.56;;;24.90;100.00
26489;BME280;14169;43.684;10.484;2022-11-11T10:44:40;103143.06;;;25.08;100.00
26489;BME280;14169;43.684;10.484;2022-11-11T10:49:47;103138.00;;;25.50;100.00
26489;BME280;14169;43.684;10.484;2022-11-11T10:52:22;103143.44;;;25.49;100.00
26489;BME280;14169;43.684;10.484;2022-11-11T10:54:57;103138.38;;;25.91;100.00
26489;BME280;14169;43.684;10.484;2022-11-11T10:57:32;103129.97;;;25.97;97.66
26489;BME280;14169;43.684;10.484;2022-11-11T11:00:07;103125.38;;;25.99;94.32
26489;BME280;14169;43.684;10.484;2022-11-11T11:02:39;103129.53;;;26.05;90.39
26489;BME280;14169;43.684;10.484;2022-11-11T11:05:24;103126.09;;;26.02;84.24
26489;BME280;14169;43.684;10.484;2022-11-11T11:07:56;103117.66;;;25.94;82.16
26489;BME280;14169;43.684;10.484;2022-11-11T11:10:28;103126.41;;;26.12;84.31
26489;BME280;14169;43.684;10.484;2022-11-11T11:13:06;103121.50;;;26.05;80.74
26489;BME280;14169;43.684;10.484;2022-11-11T11:15:36;103121.56;;;26.19;81.75
26489;BME280;14169;43.684;10.484;2022-11-11T11:18:14;103119.66;;;26.21;78.38
26489;BME280;14169;43.684;10.484;2022-11-11T11:21:02;103107.38;;;26.02;77.05
26489;BME280;14169;43.684;10.484;2022-11-11T11:23:45;103113.69;;;26.45;77.74
26489;BME280;14169;43.684;10.484;2022-11-11T11:26:12;103108.84;;;26.80;75.47
26489;BME280;14169;43.684;10.484;2022-11-11T11:28:58;103111.53;;;26.80;71.01
26489;BME280;14169;43.684;10.484;2022-11-11T11:31:39;103116.22;;;26.76;71.09
26489;BME280;14169;43.684;10.484;2022-11-11T11:34:07;103098.44;;;26.61;70.40
26489;BME280;14169;43.684;10.484;2022-11-11T11:36:32;103110.34;;;26.42;70.09
26489;BME280;14169;43.684;10.484;2022-11-11T11:38:58;103096.06;;;26.57;71.74
26489;BME280;14169;43.684;10.484;2022-11-11T11:41:41;103094.22;;;26.71;68.21
26489;BME280;14169;43.684;10.484;2022-11-11T11:44:28;103092.59;;;26.69;67.04
26489;BME280;14169;43.684;10.484;2022-11-11T11:47:50;103090.63;;;26.72;67.06
26489;BME280;14169;43.684;10.484;2022-11-11T11:55:50;103070.19;;;26.86;64.33
26489;BME280;14169;43.684;10.484;2022-11-11T11:58:38;103076.47;;;26.84;65.13
26489;BME280;14169;43.684;10.484;2022-11-11T12:01:18;103075.34;;;27.03;64.62
26489;BME280;14169;43.684;10.484;2022-11-11T12:06:49;103072.84;;;27.00;60.81
26489;BME280;14169;43.684;10.484;2022-11-11T12:09:49;103069.25;;;26.87;61.06
26489;BME280;14169;43.684;10.484;2022-11-11T12:13:17;103066.63;;;26.29;61.47
26489;BME280;14169;43.684;10.484;2022-11-11T12:15:23;103064.13;;;26.26;65.29
26489;BME280;14169;43.684;10.484;2022-11-11T12:18:10;103061.97;;;26.74;64.97
26489;BME280;14169;43.684;10.484;2022-11-11T12:21:01;103056.19;;;27.49;61.99
26489;BME280;14169;43.684;10.484;2022-11-11T12:23:44;103055.38;;;27.61;58.83
26489;BME280;14169;43.684;10.484;2022-11-11T12:29:02;103039.94;;;27.52;57.40
26489;BME280;14169;43.684;10.484;2022-11-11T12:34:15;103049.69;;;27.53;57.52
26489;BME280;14169;43.684;10.484;2022-11-11T12:40:01;103037.22;;;27.26;54.67
26489;BME280;14169;43.684;10.484;2022-11-11T12:45:18;103037.25;;;27.12;57.91
26489;BME280;14169;43.684;10.484;2022-11-11T12:47:47;103037.25;;;27.12;57.89
26489;BME280;14169;43.684;10.484;2022-11-11T12:50:28;103033.81;;;27.10;59.80
26489;BME280;14169;43.684;10.484;2022-11-11T12:55:45;103019.53;;;26.97;57.47
26489;BME280;14169;43.684;10.484;2022-11-11T12:58:29;103028.50;;;26.96;58.55
26489;BME280;14169;43.684;10.484;2022-11-11T13:09:41;103010.94;;;27.72;58.08
26489;BME280;14169;43.684;10.484;2022-11-11T13:12:34;103002.31;;;27.54;52.73
26489;BME280;14169;43.684;10.484;2022-11-11T13:15:21;103001.06;;;27.06;54.39
26489;BME280;14169;43.684;10.484;2022-11-11T13:17:47;103007.00;;;26.97;57.80
26489;BME280;14169;43.684;10.484;2022-11-11T13:23:02;103001.34;;;26.47;61.50
26489;BME280;14169;43.684;10.484;2022-11-11T13:25:31;102995.59;;;26.39;62.99
26489;BME280;14169;43.684;10.484;2022-11-11T13:28:03;103001.72;;;26.27;61.95
26489;BME280;14169;43.684;10.484;2022-11-11T13:33:39;102995.44;;;26.12;61.46
26489;BME280;14169;43.684;10.484;2022-11-11T13:36:08;103001.34;;;26.03;64.29
26489;BME280;14169;43.684;10.484;2022-11-11T13:38:42;103003.84;;;26.20;64.95
26489;BME280;14169;43.684;10.484;2022-11-11T13:41:09;102996.97;;;26.02;65.16
26489;BME280;14169;43.684;10.484;2022-11-11T13:43:42;102989.63;;;26.06;65.88
26489;BME280;14169;43.684;10.484;2022-11-11T13:46:43;102999.03;;;25.83;66.28
26489;BME280;14169;43.684;10.484;2022-11-11T13:49:30;103003.97;;;25.59;68.29